SKW4187 KIAD-KEWR
Flight info
| Callsign | SKW4187 |
|---|---|
| Flight time | 0h 38m |
| Altitude | 27000 |
| Route | JCOBY4 SWANN PHLBO4 |
| Aircraft | CRJ7/M-SDFGIRWY/S |
Departure
| Time | 2026-04-25 05:59 |
|---|---|
| Airport | Washington Dulles International Airport (KIAD) |
Arrival
| Time | 2026-04-25 06:37 |
|---|---|
| Airport | Newark Liberty International Airport (KEWR) |
| Time | Latitude | Longitude | Altitude | Speed | Heading |
|---|---|---|---|---|---|
| 2026-04-25 05:37 | 38.94488 | -77.44628 | 298 ft | 0 kts | 349° |
| 2026-04-25 05:48 | 38.94466 | -77.44622 | 298 ft | 4 kts | 349° |
| 2026-04-25 05:49 | 38.94445 | -77.44617 | 298 ft | 4 kts | 349° |
| 2026-04-25 05:49 | 38.94420 | -77.44609 | 298 ft | 4 kts | 332° |
| 2026-04-25 05:49 | 38.94409 | -77.44588 | 298 ft | 3 kts | 270° |
| 2026-04-25 05:49 | 38.94409 | -77.44559 | 298 ft | 1 kts | 270° |
| 2026-04-25 05:52 | 38.94409 | -77.44585 | 298 ft | 9 kts | 270° |
| 2026-04-25 05:53 | 38.94410 | -77.44724 | 298 ft | 19 kts | 271° |
| 2026-04-25 05:53 | 38.94412 | -77.44898 | 301 ft | 21 kts | 271° |
| 2026-04-25 05:53 | 38.94414 | -77.45087 | 301 ft | 22 kts | 270° |
| 2026-04-25 05:53 | 38.94416 | -77.45289 | 302 ft | 23 kts | 270° |
| 2026-04-25 05:54 | 38.94417 | -77.45492 | 299 ft | 17 kts | 270° |
| 2026-04-25 05:54 | 38.94387 | -77.45605 | 299 ft | 14 kts | 204° |
| 2026-04-25 05:54 | 38.94173 | -77.45615 | 301 ft | 17 kts | 180° |
| 2026-04-25 05:55 | 38.94046 | -77.45617 | 299 ft | 18 kts | 180° |
| 2026-04-25 05:55 | 38.94004 | -77.45618 | 299 ft | 1 kts | 180° |
| 2026-04-25 05:55 | 38.94000 | -77.45618 | 299 ft | 0 kts | 180° |
| 2026-04-25 05:56 | 38.93981 | -77.45618 | 302 ft | 12 kts | 180° |
| 2026-04-25 05:56 | 38.93874 | -77.45618 | 298 ft | 16 kts | 180° |
| 2026-04-25 05:56 | 38.93769 | -77.45619 | 300 ft | 15 kts | 183° |
| 2026-04-25 05:57 | 38.93664 | -77.45647 | 298 ft | 16 kts | 199° |
| 2026-04-25 05:57 | 38.93556 | -77.45699 | 300 ft | 17 kts | 201° |
| 2026-04-25 05:57 | 38.93449 | -77.45767 | 298 ft | 18 kts | 236° |
| 2026-04-25 05:57 | 38.93466 | -77.45952 | 298 ft | 35 kts | 291° |
| 2026-04-25 05:58 | 38.93618 | -77.46472 | 302 ft | 88 kts | 290° |
| 2026-04-25 05:58 | 38.93893 | -77.47403 | 303 ft | 133 kts | 290° |
| 2026-04-25 05:58 | 38.94256 | -77.48636 | 383 ft | 155 kts | 291° |
| 2026-04-25 05:58 | 38.94680 | -77.49932 | 745 ft | 159 kts | 292° |
| 2026-04-25 05:59 | 38.95105 | -77.51274 | 1005 ft | 178 kts | 292° |
| 2026-04-25 05:59 | 38.95663 | -77.52835 | 1232 ft | 197 kts | 296° |
| 2026-04-25 05:59 | 38.96573 | -77.54165 | 1802 ft | 208 kts | 336° |
| 2026-04-25 05:59 | 38.97982 | -77.54257 | 2465 ft | 213 kts | 19° |
| 2026-04-25 06:00 | 38.99338 | -77.53451 | 3213 ft | 216 kts | 26° |
| 2026-04-25 06:00 | 39.00658 | -77.52526 | 4033 ft | 216 kts | 28° |
| 2026-04-25 06:00 | 39.01899 | -77.51552 | 4845 ft | 215 kts | 37° |
| 2026-04-25 06:00 | 39.02882 | -77.50008 | 5606 ft | 219 kts | 54° |
| 2026-04-25 06:01 | 39.03755 | -77.48389 | 6330 ft | 221 kts | 52° |
| 2026-04-25 06:01 | 39.04697 | -77.46818 | 7002 ft | 223 kts | 48° |
| 2026-04-25 06:01 | 39.05709 | -77.45292 | 7676 ft | 225 kts | 45° |
| 2026-04-25 06:01 | 39.06768 | -77.43793 | 8341 ft | 227 kts | 44° |
| 2026-04-25 06:02 | 39.07838 | -77.42287 | 8988 ft | 230 kts | 45° |
| 2026-04-25 06:02 | 39.08903 | -77.40766 | 9652 ft | 233 kts | 44° |
| 2026-04-25 06:02 | 39.09992 | -77.39211 | 10271 ft | 234 kts | 44° |
| 2026-04-25 06:02 | 39.11124 | -77.37622 | 10529 ft | 254 kts | 44° |
| 2026-04-25 06:03 | 39.12384 | -77.35843 | 10587 ft | 283 kts | 45° |
| 2026-04-25 06:03 | 39.13758 | -77.33866 | 10733 ft | 308 kts | 45° |
| 2026-04-25 06:03 | 39.15150 | -77.31655 | 10970 ft | 330 kts | 59° |
| 2026-04-25 06:03 | 39.15789 | -77.28738 | 11251 ft | 351 kts | 88° |
| 2026-04-25 06:04 | 39.15417 | -77.25632 | 11743 ft | 359 kts | 105° |
| 2026-04-25 06:04 | 39.14727 | -77.22486 | 12473 ft | 362 kts | 105° |
| 2026-04-25 06:04 | 39.14051 | -77.19396 | 13111 ft | 365 kts | 105° |
| 2026-04-25 06:04 | 39.13435 | -77.16206 | 13806 ft | 367 kts | 102° |
| 2026-04-25 06:05 | 39.12891 | -77.12977 | 14388 ft | 371 kts | 101° |
| 2026-04-25 06:05 | 39.12386 | -77.09708 | 14954 ft | 374 kts | 101° |
| 2026-04-25 06:05 | 39.11865 | -77.06410 | 15508 ft | 377 kts | 101° |
| 2026-04-25 06:05 | 39.11334 | -77.03087 | 16055 ft | 381 kts | 101° |
| 2026-04-25 06:06 | 39.10798 | -76.99734 | 16606 ft | 384 kts | 99° |
| 2026-04-25 06:06 | 39.10577 | -76.96302 | 17137 ft | 386 kts | 88° |
| 2026-04-25 06:06 | 39.10702 | -76.92844 | 17667 ft | 388 kts | 84° |
| 2026-04-25 06:06 | 39.10893 | -76.89360 | 18188 ft | 391 kts | 84° |
| 2026-04-25 06:07 | 39.11065 | -76.85852 | 18639 ft | 396 kts | 85° |
| 2026-04-25 06:07 | 39.11176 | -76.82289 | 19025 ft | 400 kts | 86° |
| 2026-04-25 06:07 | 39.11261 | -76.78693 | 19475 ft | 403 kts | 86° |
| 2026-04-25 06:07 | 39.11352 | -76.75071 | 19919 ft | 406 kts | 85° |
| 2026-04-25 06:08 | 39.11445 | -76.71478 | 20351 ft | 408 kts | 85° |
| 2026-04-25 06:08 | 39.11536 | -76.67811 | 20755 ft | 411 kts | 85° |
| 2026-04-25 06:08 | 39.11625 | -76.64123 | 21169 ft | 414 kts | 85° |
| 2026-04-25 06:08 | 39.11713 | -76.60407 | 21569 ft | 417 kts | 85° |
| 2026-04-25 06:09 | 39.11801 | -76.56668 | 21966 ft | 419 kts | 85° |
| 2026-04-25 06:09 | 39.11887 | -76.52906 | 22346 ft | 421 kts | 84° |
| 2026-04-25 06:09 | 39.12091 | -76.49138 | 22715 ft | 422 kts | 79° |
| 2026-04-25 06:09 | 39.12515 | -76.45393 | 23097 ft | 423 kts | 76° |
| 2026-04-25 06:10 | 39.13017 | -76.41649 | 23501 ft | 425 kts | 76° |
| 2026-04-25 06:10 | 39.13509 | -76.37884 | 23804 ft | 428 kts | 76° |
| 2026-04-25 06:10 | 39.13953 | -76.34075 | 24096 ft | 430 kts | 77° |
| 2026-04-25 06:10 | 39.14389 | -76.30248 | 24386 ft | 433 kts | 77° |
| 2026-04-25 06:11 | 39.14832 | -76.26410 | 24659 ft | 434 kts | 75° |
| 2026-04-25 06:11 | 39.15856 | -76.22824 | 24890 ft | 423 kts | 53° |
| 2026-04-25 06:11 | 39.17617 | -76.19823 | 25153 ft | 418 kts | 43° |
| 2026-04-25 06:11 | 39.19701 | -76.17232 | 25413 ft | 416 kts | 36° |
| 2026-04-25 06:12 | 39.21877 | -76.14840 | 25698 ft | 416 kts | 35° |
| 2026-04-25 06:12 | 39.24098 | -76.12420 | 25990 ft | 418 kts | 35° |
| 2026-04-25 06:12 | 39.26291 | -76.09939 | 26239 ft | 421 kts | 37° |
| 2026-04-25 06:12 | 39.28462 | -76.07378 | 26471 ft | 423 kts | 37° |
| 2026-04-25 06:13 | 39.30643 | -76.04813 | 26709 ft | 425 kts | 37° |
| 2026-04-25 06:13 | 39.32843 | -76.02226 | 26834 ft | 430 kts | 37° |
| 2026-04-25 06:13 | 39.35067 | -75.99608 | 26921 ft | 434 kts | 37° |
| 2026-04-25 06:14 | 39.39600 | -75.94265 | 26946 ft | 447 kts | 37° |
| 2026-04-25 06:14 | 39.41913 | -75.91533 | 26963 ft | 454 kts | 37° |
| 2026-04-25 06:14 | 39.44231 | -75.88798 | 26966 ft | 460 kts | 37° |
| 2026-04-25 06:14 | 39.46606 | -75.85991 | 26967 ft | 464 kts | 37° |
| 2026-04-25 06:15 | 39.48986 | -75.83175 | 26972 ft | 463 kts | 37° |
| 2026-04-25 06:15 | 39.51362 | -75.80359 | 26969 ft | 463 kts | 37° |
| 2026-04-25 06:15 | 39.52971 | -75.78451 | 26976 ft | 462 kts | 37° |
| 2026-04-25 06:15 | 39.55308 | -75.75673 | 26980 ft | 461 kts | 37° |
| 2026-04-25 06:16 | 39.57669 | -75.72874 | 26982 ft | 459 kts | 37° |
| 2026-04-25 06:16 | 39.60023 | -75.70074 | 26990 ft | 458 kts | 37° |
| 2026-04-25 06:16 | 39.62358 | -75.67300 | 26982 ft | 456 kts | 37° |
| 2026-04-25 06:16 | 39.64696 | -75.64524 | 26983 ft | 453 kts | 37° |
| 2026-04-25 06:17 | 39.66992 | -75.61780 | 26979 ft | 439 kts | 37° |
| 2026-04-25 06:17 | 39.69201 | -75.59106 | 26309 ft | 431 kts | 37° |
| 2026-04-25 06:17 | 39.71372 | -75.56455 | 25549 ft | 427 kts | 37° |
| 2026-04-25 06:17 | 39.73529 | -75.53834 | 24838 ft | 422 kts | 37° |
| 2026-04-25 06:18 | 39.75673 | -75.51248 | 24131 ft | 418 kts | 37° |
| 2026-04-25 06:18 | 39.77793 | -75.48699 | 23419 ft | 409 kts | 37° |
| 2026-04-25 06:18 | 39.79837 | -75.46231 | 22621 ft | 394 kts | 37° |
| 2026-04-25 06:18 | 39.81787 | -75.43873 | 21893 ft | 382 kts | 37° |
| 2026-04-25 06:19 | 39.83706 | -75.41551 | 21214 ft | 373 kts | 37° |
| 2026-04-25 06:19 | 39.85608 | -75.39250 | 20544 ft | 373 kts | 37° |
| 2026-04-25 06:19 | 39.87520 | -75.36950 | 19889 ft | 374 kts | 37° |
| 2026-04-25 06:19 | 39.89428 | -75.34652 | 19248 ft | 374 kts | 37° |
| 2026-04-25 06:20 | 39.91337 | -75.32346 | 18615 ft | 375 kts | 38° |
| 2026-04-25 06:20 | 39.93249 | -75.30026 | 17937 ft | 376 kts | 38° |
| 2026-04-25 06:20 | 39.95162 | -75.27698 | 17218 ft | 377 kts | 38° |
| 2026-04-25 06:20 | 39.97084 | -75.25361 | 16522 ft | 377 kts | 38° |
| 2026-04-25 06:21 | 39.98967 | -75.23053 | 15841 ft | 366 kts | 38° |
| 2026-04-25 06:21 | 40.00813 | -75.20798 | 15183 ft | 364 kts | 37° |
| 2026-04-25 06:21 | 40.02647 | -75.18574 | 14556 ft | 365 kts | 38° |
| 2026-04-25 06:21 | 40.04505 | -75.16322 | 13927 ft | 365 kts | 37° |
| 2026-04-25 06:22 | 40.06366 | -75.14058 | 13224 ft | 366 kts | 38° |
| 2026-04-25 06:22 | 40.08207 | -75.11808 | 12547 ft | 357 kts | 38° |
| 2026-04-25 06:22 | 40.09986 | -75.09622 | 11893 ft | 346 kts | 38° |
| 2026-04-25 06:22 | 40.11713 | -75.07496 | 11282 ft | 336 kts | 38° |
| 2026-04-25 06:23 | 40.13381 | -75.05448 | 10884 ft | 321 kts | 37° |
| 2026-04-25 06:23 | 40.14959 | -75.03490 | 10582 ft | 305 kts | 37° |
| 2026-04-25 06:23 | 40.16461 | -75.01628 | 10298 ft | 291 kts | 37° |
| 2026-04-25 06:23 | 40.17910 | -74.99844 | 10021 ft | 282 kts | 37° |
| 2026-04-25 06:24 | 40.19326 | -74.98106 | 9748 ft | 276 kts | 37° |
| 2026-04-25 06:24 | 40.20732 | -74.96398 | 9475 ft | 277 kts | 36° |
| 2026-04-25 06:24 | 40.22150 | -74.94698 | 9202 ft | 276 kts | 36° |
| 2026-04-25 06:24 | 40.23559 | -74.93004 | 8983 ft | 272 kts | 37° |
| 2026-04-25 06:25 | 40.24914 | -74.91348 | 8972 ft | 261 kts | 37° |
| 2026-04-25 06:25 | 40.26219 | -74.89658 | 8629 ft | 266 kts | 40° |
| 2026-04-25 06:25 | 40.27489 | -74.87876 | 8293 ft | 269 kts | 42° |
| 2026-04-25 06:25 | 40.28753 | -74.86069 | 8028 ft | 268 kts | 42° |
| 2026-04-25 06:26 | 40.29979 | -74.84322 | 7986 ft | 258 kts | 42° |
| 2026-04-25 06:26 | 40.31142 | -74.82566 | 7838 ft | 257 kts | 50° |
| 2026-04-25 06:26 | 40.32066 | -74.80515 | 7622 ft | 265 kts | 59° |
| 2026-04-25 06:26 | 40.32853 | -74.78296 | 7435 ft | 270 kts | 62° |
| 2026-04-25 06:27 | 40.33621 | -74.76039 | 7234 ft | 271 kts | 62° |
| 2026-04-25 06:27 | 40.34401 | -74.73791 | 7042 ft | 271 kts | 62° |
| 2026-04-25 06:27 | 40.35216 | -74.71562 | 6833 ft | 271 kts | 60° |
| 2026-04-25 06:27 | 40.36055 | -74.69344 | 6581 ft | 273 kts | 61° |
| 2026-04-25 06:28 | 40.36885 | -74.67130 | 6413 ft | 271 kts | 61° |
| 2026-04-25 06:28 | 40.37719 | -74.64894 | 6103 ft | 274 kts | 62° |
| 2026-04-25 06:28 | 40.38553 | -74.62648 | 5877 ft | 273 kts | 62° |
| 2026-04-25 06:28 | 40.39388 | -74.60420 | 5680 ft | 271 kts | 62° |
| 2026-04-25 06:29 | 40.40210 | -74.58218 | 5470 ft | 266 kts | 63° |
| 2026-04-25 06:29 | 40.41013 | -74.56062 | 5272 ft | 260 kts | 63° |
| 2026-04-25 06:29 | 40.41786 | -74.53982 | 5079 ft | 254 kts | 63° |
| 2026-04-25 06:29 | 40.42555 | -74.51914 | 4891 ft | 249 kts | 63° |
| 2026-04-25 06:30 | 40.43308 | -74.49890 | 4706 ft | 247 kts | 64° |
| 2026-04-25 06:30 | 40.44070 | -74.47875 | 4517 ft | 244 kts | 64° |
| 2026-04-25 06:30 | 40.44827 | -74.45885 | 4338 ft | 243 kts | 64° |
| 2026-04-25 06:30 | 40.45593 | -74.43875 | 4161 ft | 247 kts | 65° |
| 2026-04-25 06:31 | 40.46351 | -74.41845 | 3985 ft | 249 kts | 65° |
| 2026-04-25 06:31 | 40.47110 | -74.39804 | 3804 ft | 247 kts | 66° |
| 2026-04-25 06:31 | 40.47843 | -74.37793 | 3621 ft | 240 kts | 66° |
| 2026-04-25 06:31 | 40.48537 | -74.35887 | 3640 ft | 223 kts | 66° |
| 2026-04-25 06:32 | 40.49192 | -74.34119 | 3629 ft | 210 kts | 65° |
| 2026-04-25 06:32 | 40.49820 | -74.32408 | 3620 ft | 207 kts | 66° |
| 2026-04-25 06:32 | 40.50443 | -74.30706 | 3648 ft | 203 kts | 67° |
| 2026-04-25 06:32 | 40.51046 | -74.29062 | 3661 ft | 199 kts | 66° |
| 2026-04-25 06:33 | 40.51807 | -74.27478 | 3404 ft | 213 kts | 44° |
| 2026-04-25 06:33 | 40.53094 | -74.26513 | 3152 ft | 212 kts | 27° |
| 2026-04-25 06:33 | 40.54430 | -74.25727 | 2889 ft | 210 kts | 26° |
| 2026-04-25 06:33 | 40.55750 | -74.24959 | 2628 ft | 212 kts | 27° |
| 2026-04-25 06:34 | 40.57106 | -74.24157 | 2351 ft | 214 kts | 27° |
| 2026-04-25 06:34 | 40.58453 | -74.23337 | 2070 ft | 213 kts | 28° |
| 2026-04-25 06:34 | 40.59793 | -74.22509 | 1791 ft | 210 kts | 30° |
| 2026-04-25 06:34 | 40.61060 | -74.21705 | 1510 ft | 194 kts | 30° |
| 2026-04-25 06:35 | 40.62216 | -74.20972 | 1257 ft | 173 kts | 30° |
| 2026-04-25 06:35 | 40.63179 | -74.20358 | 1047 ft | 139 kts | 27° |
| 2026-04-25 06:35 | 40.64061 | -74.19780 | 821 ft | 143 kts | 27° |
| 2026-04-25 06:35 | 40.64964 | -74.19198 | 633 ft | 145 kts | 26° |
| 2026-04-25 06:36 | 40.65859 | -74.18644 | 473 ft | 142 kts | 25° |
| 2026-04-25 06:36 | 40.66734 | -74.18101 | 308 ft | 138 kts | 20° |
| 2026-04-25 06:36 | 40.67595 | -74.17546 | 151 ft | 136 kts | 23° |
| 2026-04-25 06:36 | 40.68417 | -74.17015 | 27 ft | 122 kts | 21° |
| 2026-04-25 06:37 | 40.69043 | -74.16615 | 21 ft | 75 kts | 27° |
| 2026-04-25 06:37 | 40.69326 | -74.16456 | 23 ft | 24 kts | 9° |
| 2026-04-25 06:37 | 40.69449 | -74.16456 | 23 ft | 16 kts | 355° |
| 2026-04-25 06:37 | 40.69540 | -74.16464 | 20 ft | 0 kts | 356° |
| 2026-04-25 06:39 | 40.69541 | -74.16464 | 20 ft | 0 kts | 356° |
| 2026-04-25 06:40 | 40.69554 | -74.16466 | 20 ft | 5 kts | 356° |
| 2026-04-25 06:41 | 40.69614 | -74.16463 | 22 ft | 11 kts | 18° |
| 2026-04-25 06:41 | 40.69702 | -74.16419 | 21 ft | 13 kts | 359° |
| 2026-04-25 06:41 | 40.69763 | -74.16512 | 19 ft | 16 kts | 295° |
| 2026-04-25 06:41 | 40.69808 | -74.16635 | 20 ft | 11 kts | 291° |
| 2026-04-25 06:42 | 40.69786 | -74.16744 | 22 ft | 14 kts | 245° |
| 2026-04-25 06:42 | 40.69714 | -74.16843 | 20 ft | 17 kts | 205° |
| 2026-04-25 06:42 | 40.69638 | -74.16937 | 22 ft | 16 kts | 250° |
| 2026-04-25 06:42 | 40.69690 | -74.17053 | 20 ft | 19 kts | 333° |
| 2026-04-25 06:43 | 40.69801 | -74.17149 | 20 ft | 20 kts | 320° |
| 2026-04-25 06:43 | 40.69896 | -74.17278 | 22 ft | 19 kts | 309° |
| 2026-04-25 06:43 | 40.69958 | -74.17433 | 20 ft | 19 kts | 285° |
| 2026-04-25 06:43 | 40.69974 | -74.17598 | 22 ft | 18 kts | 275° |
| 2026-04-25 06:44 | 40.69984 | -74.17761 | 20 ft | 18 kts | 275° |
| 2026-04-25 06:44 | 40.69995 | -74.17927 | 21 ft | 18 kts | 275° |
| 2026-04-25 06:44 | 40.70006 | -74.18080 | 20 ft | 15 kts | 275° |
| 2026-04-25 06:44 | 40.69948 | -74.18160 | 21 ft | 14 kts | 189° |
| 2026-04-25 06:45 | 40.69850 | -74.18155 | 20 ft | 12 kts | 154° |
| 2026-04-25 06:45 | 40.69823 | -74.18157 | 20 ft | 3 kts | 228° |
| 2026-04-25 06:45 | 40.69808 | -74.18194 | 21 ft | 4 kts | 244° |
| 2026-04-25 06:45 | 40.69803 | -74.18207 | 20 ft | 0 kts | 244° |